Ballico, California
Current Conditions -  °F | °C
As of 12:45 PM on Friday 28 Nov 2014 (Local Time) from KMER Reporting Station
Haze Haze  
Wind Chill: 70°   Ceiling: Unl
Heat Index: 70°   Visibility: 4mi
Dew Point: 52°   Wind: 5mph
Humidity: 53%   Direction: NA
Pressure: 29.95"   Gusts: NA
Location:  37.45°N, 120.7°W
Report Text: KMER 282045Z VRB04KT 4SM HZ SKC 21/11 A2995
Loading
Personal Weather Stations






























Interactive Weather Map New forecast layout! Learn more

10-Day Weather Forecast

Advertisements
Track Severe Weather on mobile